Time;durP1;ratioP1;P1;durP2;ratioP2;P2;SDS_P1;SDS_P2;PMS_P1;PMS_P2;Temp;Humidity;BMP_temperature;BMP_pressure;BME280_temperature;BME280_humidity;BME280_pressure;Samples;Min_cycle;Max_cycle;Signal;HPM_P1;HPM_P2
2022/03/27 00:00:18;;;;;;;6.07;4.38;;;;;;;11.12;100.00;103363.88;5014566;28;20121;-67
2022/03/27 00:02:43;;;;;;;7.85;4.13;;;;;;;11.06;100.00;103366.16;5012747;28;20382;-66
2022/03/27 00:05:11;;;;;;;4.85;3.85;;;;;;;11.08;100.00;103364.53;5011655;28;20104;-66
2022/03/27 00:07:37;;;;;;;5.13;3.92;;;;;;;11.12;100.00;103363.88;5016594;28;20028;-66
2022/03/27 00:10:04;;;;;;;6.35;3.60;;;;;;;11.13;100.00;103363.03;5028523;28;20450;-66
2022/03/27 00:12:29;;;;;;;3.45;3.15;;;;;;;11.09;100.00;103355.78;5011533;28;20025;-66
2022/03/27 00:14:55;;;;;;;6.18;3.78;;;;;;;11.08;100.00;103359.25;5011815;28;20500;-66
2022/03/27 00:17:20;;;;;;;4.68;3.92;;;;;;;10.90;100.00;103355.59;5012251;28;20088;-66
2022/03/27 00:19:45;;;;;;;8.27;4.30;;;;;;;10.96;100.00;103356.84;5011995;28;20549;-66
2022/03/27 00:22:11;;;;;;;5.35;3.83;;;;;;;10.96;100.00;103353.31;5011389;28;20044;-66
2022/03/27 00:24:36;;;;;;;5.28;4.03;;;;;;;11.06;100.00;103350.34;5012212;28;20113;-66
2022/03/27 00:27:02;;;;;;;7.63;4.07;;;;;;;11.02;100.00;103355.38;5012055;28;20033;-66
2022/03/27 00:29:27;;;;;;;4.15;3.75;;;;;;;10.91;100.00;103355.69;5012333;28;20064;-66
2022/03/27 00:31:53;;;;;;;5.38;4.20;;;;;;;10.79;100.00;103361.16;5011919;28;20349;-66
2022/03/27 00:34:21;;;;;;;4.45;3.50;;;;;;;10.76;100.00;103360.09;5011658;28;20026;-66
2022/03/27 00:36:47;;;;;;;6.95;4.50;;;;;;;10.84;100.00;103357.88;4995298;28;20032;-66
2022/03/27 00:39:12;;;;;;;5.30;3.72;;;;;;;10.78;100.00;103354.09;4994002;28;20522;-66
2022/03/27 00:41:37;;;;;;;7.63;4.55;;;;;;;10.48;100.00;103352.34;5010820;28;20025;-66
2022/03/27 00:44:03;;;;;;;6.20;4.75;;;;;;;10.49;100.00;103354.16;5011820;28;20100;-66
2022/03/27 00:46:28;;;;;;;6.30;5.35;;;;;;;10.39;100.00;103358.91;5012378;28;20028;-66
2022/03/27 00:48:54;;;;;;;8.80;5.45;;;;;;;10.33;100.00;103369.03;5012323;28;20026;-67
2022/03/27 00:51:19;;;;;;;6.20;5.55;;;;;;;10.30;100.00;103377.63;5023641;28;20036;-66
2022/03/27 00:53:45;;;;;;;9.05;5.60;;;;;;;10.31;100.00;103368.03;5020603;28;20040;-66
2022/03/27 00:56:11;;;;;;;7.85;5.50;;;;;;;10.25;100.00;103365.03;5011414;28;20034;-66
2022/03/27 00:58:37;;;;;;;8.20;5.85;;;;;;;10.26;100.00;103358.97;5017075;28;20112;-66
2022/03/27 01:01:24;;;;;;;9.52;6.05;;;;;;;10.27;100.00;103360.78;5012520;28;20050;-66
2022/03/27 01:03:53;;;;;;;9.40;6.28;;;;;;;10.05;100.00;103367.41;5012080;28;20030;-66
2022/03/27 01:06:25;;;;;;;8.63;6.03;;;;;;;10.18;100.00;103354.97;5010578;28;20037;-66
2022/03/27 01:11:36;;;;;;;8.63;5.45;;;;;;;10.04;100.00;103359.44;5010951;28;20061;-66
2022/03/27 01:14:02;;;;;;;8.82;5.55;;;;;;;10.02;100.00;103356.69;5014402;28;20025;-66
2022/03/27 01:16:39;;;;;;;7.95;5.35;;;;;;;9.96;100.00;103361.59;5027619;28;20038;-66
2022/03/27 01:19:06;;;;;;;7.10;5.80;;;;;;;9.91;100.00;103360.41;5011570;28;20108;-66
2022/03/27 01:21:35;;;;;;;9.05;5.97;;;;;;;9.91;100.00;103363.94;5011737;28;20034;-66
2022/03/27 01:24:00;;;;;;;7.43;5.85;;;;;;;9.87;100.00;103350.53;5011889;28;20072;-66
2022/03/27 01:26:25;;;;;;;8.35;5.88;;;;;;;9.78;100.00;103346.53;5011736;28;20420;-66
2022/03/27 01:28:51;;;;;;;10.88;6.38;;;;;;;9.73;100.00;103354.97;5011833;28;20812;-66
2022/03/27 01:31:18;;;;;;;7.32;5.70;;;;;;;9.76;100.00;103340.25;5011364;28;20036;-66
2022/03/27 01:33:44;;;;;;;7.68;6.07;;;;;;;9.72;100.00;103348.78;5011815;28;20458;-66
2022/03/27 01:36:09;;;;;;;8.65;6.32;;;;;;;9.63;100.00;103350.88;5015466;28;20030;-66
2022/03/27 01:38:35;;;;;;;9.93;6.70;;;;;;;9.53;100.00;103359.00;5015639;28;20040;-66
2022/03/27 01:41:00;;;;;;;8.85;6.68;;;;;;;9.58;100.00;103352.31;5017223;28;20113;-66
2022/03/27 01:43:25;;;;;;;7.25;5.55;;;;;;;9.57;100.00;103353.13;5014561;28;20033;-66
2022/03/27 01:45:51;;;;;;;7.72;5.65;;;;;;;9.51;100.00;103350.09;5015211;28;20034;-66
2022/03/27 01:48:16;;;;;;;7.35;5.53;;;;;;;9.53;100.00;103344.13;5015385;28;20038;-66
2022/03/27 01:50:41;;;;;;;9.93;6.53;;;;;;;9.43;100.00;103347.91;5014907;28;20061;-67
2022/03/27 01:53:07;;;;;;;10.82;7.30;;;;;;;9.40;100.00;103346.81;5015163;28;20032;-67
2022/03/27 01:55:32;;;;;;;8.13;6.30;;;;;;;9.49;100.00;103349.13;5014073;28;20037;-66
2022/03/27 01:57:57;;;;;;;8.80;6.50;;;;;;;9.37;100.00;103344.94;5015092;28;20389;-67
2022/03/27 02:00:23;;;;;;;9.50;7.30;;;;;;;9.29;100.00;103343.50;5014097;28;20030;-67
2022/03/27 02:02:48;;;;;;;8.23;6.72;;;;;;;9.28;100.00;103346.97;5014729;28;20038;-67
2022/03/27 02:05:14;;;;;;;11.15;7.63;;;;;;;9.28;100.00;103347.88;5013849;28;20021;-67
2022/03/27 02:07:44;;;;;;;8.70;6.50;;;;;;;9.26;100.00;103345.97;5014404;28;20029;-67
2022/03/27 02:10:09;;;;;;;9.45;7.03;;;;;;;9.32;100.00;103348.97;5014450;28;20180;-67
2022/03/27 02:12:35;;;;;;;8.85;6.57;;;;;;;9.38;100.00;103351.06;5014367;28;20145;-67
2022/03/27 02:15:03;;;;;;;9.40;7.22;;;;;;;9.35;100.00;103350.91;5014061;28;20033;-67
2022/03/27 02:17:29;;;;;;;9.02;6.38;;;;;;;9.34;100.00;103352.59;4996309;28;20042;-67
2022/03/27 02:19:54;;;;;;;9.18;6.30;;;;;;;9.38;100.00;103349.34;5014018;28;20099;-67
2022/03/27 02:22:19;;;;;;;8.32;6.60;;;;;;;9.41;100.00;103349.56;5013409;28;20028;-67
2022/03/27 02:24:45;;;;;;;10.68;7.75;;;;;;;9.32;100.00;103346.34;5014293;28;20382;-67
2022/03/27 02:27:10;;;;;;;9.93;7.57;;;;;;;9.39;100.00;103343.28;5013126;28;20040;-67
2022/03/27 02:29:35;;;;;;;9.63;7.75;;;;;;;9.37;100.00;103342.28;5013829;28;20069;-67
2022/03/27 02:32:01;;;;;;;9.82;7.45;;;;;;;9.38;100.00;103333.56;5013247;28;20518;-67
2022/03/27 02:34:26;;;;;;;8.75;7.03;;;;;;;9.43;100.00;103334.78;5013507;28;20025;-67
2022/03/27 02:36:51;;;;;;;7.90;6.00;;;;;;;9.37;100.00;103331.78;5013887;28;20049;-67
2022/03/27 02:39:17;;;;;;;8.85;6.82;;;;;;;9.30;100.00;103329.56;5013307;28;20025;-67
2022/03/27 02:41:42;;;;;;;7.85;6.32;;;;;;;9.20;100.00;103335.09;5013526;28;20037;-67
2022/03/27 02:44:09;;;;;;;9.55;7.07;;;;;;;8.94;100.00;103335.25;4996159;28;20133;-67
2022/03/27 02:46:35;;;;;;;8.23;6.50;;;;;;;9.00;100.00;103332.09;5012544;28;20033;-67
2022/03/27 02:49:00;;;;;;;9.57;6.97;;;;;;;8.98;100.00;103323.22;5013988;28;20450;-67
2022/03/27 02:51:25;;;;;;;7.70;6.30;;;;;;;9.04;100.00;103331.47;5013578;28;20061;-67
2022/03/27 02:53:51;;;;;;;9.02;6.93;;;;;;;9.02;100.00;103337.44;5014035;28;20354;-66
2022/03/27 02:56:16;;;;;;;8.50;6.72;;;;;;;9.00;100.00;103339.09;5012752;28;20032;-67
2022/03/27 02:58:42;;;;;;;8.52;6.88;;;;;;;9.03;100.00;103329.66;5013988;28;20030;-67
2022/03/27 03:01:07;;;;;;;8.82;6.88;;;;;;;9.06;100.00;103329.88;5012422;28;20113;-67
2022/03/27 03:03:33;;;;;;;8.45;6.63;;;;;;;8.96;100.00;103323.94;5013884;28;20029;-67
2022/03/27 03:06:01;;;;;;;10.30;7.60;;;;;;;8.83;100.00;103324.88;5013755;28;20033;-67
2022/03/27 03:08:27;;;;;;;8.68;6.70;;;;;;;8.78;100.00;103321.97;5013453;28;20034;-67
2022/03/27 03:10:53;;;;;;;10.18;8.10;;;;;;;8.73;100.00;103319.03;5012654;28;20038;-67
2022/03/27 03:13:18;;;;;;;9.68;7.35;;;;;;;8.63;100.00;103318.31;5013377;28;20034;-67
2022/03/27 03:15:44;;;;;;;11.35;7.85;;;;;;;8.71;100.00;103319.75;5013018;28;20355;-67
2022/03/27 03:18:10;;;;;;;9.65;7.32;;;;;;;8.87;100.00;103321.63;5012755;28;20042;-67
2022/03/27 03:20:36;;;;;;;12.13;8.38;;;;;;;8.87;100.00;103311.13;5012221;28;20116;-66
2022/03/27 03:23:02;;;;;;;10.93;7.93;;;;;;;8.87;100.00;103316.38;5011910;28;20109;-67
2022/03/27 03:25:27;;;;;;;9.95;7.72;;;;;;;8.84;100.00;103316.19;5013299;28;20172;-67
2022/03/27 03:27:52;;;;;;;10.38;7.68;;;;;;;8.85;100.00;103324.16;5013416;28;20025;-67
2022/03/27 03:30:18;;;;;;;11.68;8.15;;;;;;;8.72;100.00;103311.97;5012456;28;20022;-67
2022/03/27 03:32:44;;;;;;;11.07;8.57;;;;;;;8.81;100.00;103316.00;5013733;28;20445;-67
2022/03/27 03:35:10;;;;;;;10.38;7.75;;;;;;;8.73;100.00;103318.13;5012466;28;20028;-67
2022/03/27 03:37:36;;;;;;;13.07;8.98;;;;;;;8.75;100.00;103317.41;5015682;28;20038;-67
2022/03/27 03:40:06;;;;;;;10.38;7.65;;;;;;;8.81;100.00;103313.38;5012963;28;20095;-67
2022/03/27 03:42:32;;;;;;;10.18;7.45;;;;;;;8.68;100.00;103309.97;5012690;28;20029;-67
2022/03/27 03:44:58;;;;;;;10.50;7.68;;;;;;;8.61;100.00;103318.22;5012683;28;20033;-67
2022/03/27 03:47:23;;;;;;;12.98;8.30;;;;;;;8.60;100.00;103312.09;5012750;28;20487;-67
2022/03/27 03:49:48;;;;;;;11.80;8.07;;;;;;;8.67;100.00;103313.41;5012815;28;20033;-67
2022/03/27 03:52:14;;;;;;;10.40;7.75;;;;;;;8.69;100.00;103306.50;5015168;28;20021;-67
2022/03/27 03:54:39;;;;;;;13.00;8.70;;;;;;;8.68;100.00;103309.03;5012517;28;20033;-67
2022/03/27 03:57:05;;;;;;;12.55;8.48;;;;;;;8.72;100.00;103313.69;5015070;28;20040;-67
2022/03/27 03:59:33;;;;;;;11.82;8.82;;;;;;;8.71;100.00;103311.88;4994841;28;20037;-67
2022/03/27 04:01:59;;;;;;;12.10;8.68;;;;;;;8.66;100.00;103316.81;4993438;28;20045;-67
2022/03/27 04:04:25;;;;;;;14.98;9.13;;;;;;;8.59;100.00;103312.88;5010561;28;20018;-67
2022/03/27 04:06:51;;;;;;;13.00;9.15;;;;;;;8.58;100.00;103323.28;5012328;28;20029;-67
2022/03/27 04:09:16;;;;;;;15.13;10.50;;;;;;;8.56;100.00;103323.19;4995057;28;20033;-67
2022/03/27 04:11:43;;;;;;;15.07;9.95;;;;;;;8.58;100.00;103320.66;5012531;28;20021;-67
2022/03/27 04:14:08;;;;;;;13.68;10.00;;;;;;;8.46;100.00;103314.63;5011984;28;20044;-67
2022/03/27 04:16:33;;;;;;;14.95;10.18;;;;;;;8.64;100.00;103313.22;5012157;28;20046;-67
2022/03/27 04:18:59;;;;;;;16.58;10.85;;;;;;;8.58;100.00;103312.78;5011154;28;20042;-67
2022/03/27 04:21:24;;;;;;;13.98;10.05;;;;;;;8.59;100.00;103314.63;5011816;28;20030;-67
2022/03/27 04:23:49;;;;;;;15.18;10.18;;;;;;;8.53;100.00;103308.97;5011982;28;20108;-67
2022/03/27 04:26:14;;;;;;;12.82;8.80;;;;;;;8.58;100.00;103313.69;5012067;28;20037;-67
2022/03/27 04:28:40;;;;;;;11.45;7.57;;;;;;;8.66;100.00;103318.56;5012044;28;20088;-67
2022/03/27 04:31:06;;;;;;;9.20;6.45;;;;;;;8.64;100.00;103317.53;4993413;28;20025;-67
2022/03/27 04:33:32;;;;;;;9.88;7.18;;;;;;;8.49;100.00;103320.06;5011874;28;20057;-67
2022/03/27 04:35:57;;;;;;;8.48;6.03;;;;;;;8.55;100.00;103317.84;5012318;28;20060;-67
2022/03/27 04:38:22;;;;;;;7.75;5.93;;;;;;;8.48;100.00;103326.13;5012404;28;20033;-67
2022/03/27 04:40:50;;;;;;;7.68;6.00;;;;;;;8.52;100.00;103325.50;5011966;28;20512;-67
2022/03/27 04:43:15;;;;;;;7.93;6.10;;;;;;;8.44;100.00;103320.63;5012105;28;20493;-67
2022/03/27 04:45:40;;;;;;;9.27;6.30;;;;;;;8.35;100.00;103320.03;5011361;28;20022;-67
2022/03/27 04:48:06;;;;;;;8.50;5.85;;;;;;;8.37;100.00;103321.06;5011836;28;20474;-67
2022/03/27 04:50:31;;;;;;;7.05;5.43;;;;;;;8.32;100.00;103327.72;5012045;28;20075;-67
2022/03/27 04:52:56;;;;;;;9.27;6.22;;;;;;;8.47;100.00;103325.22;5016309;28;20034;-67
2022/03/27 04:55:22;;;;;;;9.32;6.55;;;;;;;8.39;100.00;103327.28;5011509;28;20034;-67
2022/03/27 04:57:48;;;;;;;8.90;6.72;;;;;;;8.17;100.00;103327.59;4993813;28;20029;-67
2022/03/27 05:00:17;;;;;;;9.88;7.10;;;;;;;8.20;100.00;103329.53;5011511;28;20038;-67
2022/03/27 05:02:44;;;;;;;8.00;6.03;;;;;;;8.26;100.00;103329.91;5002733;28;20026;-67
2022/03/27 05:05:11;;;;;;;10.73;7.00;;;;;;;8.21;100.00;103326.09;5011836;28;20058;-67
2022/03/27 05:07:38;;;;;;;7.53;6.47;;;;;;;8.14;100.00;103331.72;5012145;28;20050;-67
2022/03/27 05:10:04;;;;;;;8.70;6.43;;;;;;;8.18;100.00;103337.31;5013824;28;20025;-67
2022/03/27 05:12:30;;;;;;;10.43;6.60;;;;;;;8.20;100.00;103330.44;5020581;28;20025;-67
2022/03/27 05:14:55;;;;;;;7.93;5.95;;;;;;;8.26;100.00;103329.91;5024820;28;20031;-67
2022/03/27 05:17:21;;;;;;;8.98;6.40;;;;;;;8.23;100.00;103334.97;5014782;28;20057;-67
2022/03/27 05:19:46;;;;;;;8.88;5.90;;;;;;;8.27;100.00;103331.75;5015269;28;20087;-68
2022/03/27 05:22:11;;;;;;;7.53;6.00;;;;;;;8.17;100.00;103330.22;5013896;28;20091;-67
2022/03/27 05:24:37;;;;;;;9.50;7.05;;;;;;;8.17;100.00;103334.56;5015567;28;20030;-68
2022/03/27 05:27:02;;;;;;;8.63;6.75;;;;;;;8.07;100.00;103333.03;5015462;28;20038;-67
2022/03/27 05:29:28;;;;;;;9.05;7.05;;;;;;;8.06;100.00;103336.47;4997776;28;20431;-67
2022/03/27 05:31:53;;;;;;;8.73;6.85;;;;;;;8.02;100.00;103334.47;5015158;28;20032;-67
2022/03/27 05:34:18;;;;;;;8.73;6.60;;;;;;;7.98;100.00;103341.19;5014948;28;20021;-67
2022/03/27 05:36:45;;;;;;;10.25;6.80;;;;;;;7.93;100.00;103337.34;5015137;28;20061;-67
2022/03/27 05:39:11;;;;;;;10.25;7.45;;;;;;;7.93;100.00;103339.97;5014043;28;20030;-67
2022/03/27 05:41:36;;;;;;;9.82;7.07;;;;;;;7.96;100.00;103340.16;5014024;28;20374;-67
2022/03/27 05:44:02;;;;;;;9.05;6.95;;;;;;;8.06;100.00;103336.47;5017253;28;20120;-68
2022/03/27 05:46:27;;;;;;;9.57;7.18;;;;;;;8.07;100.00;103333.97;5034543;28;20040;-68
2022/03/27 05:48:52;;;;;;;8.25;6.75;;;;;;;8.05;100.00;103335.56;5015221;28;20022;-67
2022/03/27 05:51:17;;;;;;;8.48;6.72;;;;;;;8.07;100.00;103338.28;5014325;28;20026;-67
2022/03/27 05:53:43;;;;;;;8.38;6.07;;;;;;;8.06;100.00;103331.25;5014448;28;20036;-67
2022/03/27 05:56:09;;;;;;;8.13;6.15;;;;;;;8.03;100.00;103325.75;5014425;28;20440;-67
2022/03/27 05:58:37;;;;;;;7.85;6.22;;;;;;;8.07;100.00;103333.03;5014001;28;20030;-67
2022/03/27 06:01:03;;;;;;;7.78;6.78;;;;;;;8.04;100.00;103332.84;5013467;28;20026;-67
2022/03/27 06:03:28;;;;;;;8.18;6.78;;;;;;;8.00;100.00;103329.09;5014793;28;20103;-67
2022/03/27 06:05:53;;;;;;;7.25;5.47;;;;;;;7.98;100.00;103338.59;5014776;28;20092;-67
2022/03/27 06:08:18;;;;;;;8.15;6.03;;;;;;;7.96;100.00;103339.28;5014243;28;20466;-66
2022/03/27 06:10:44;;;;;;;7.20;5.95;;;;;;;7.88;100.00;103338.75;5014224;28;20339;-67
2022/03/27 06:13:10;;;;;;;6.03;5.40;;;;;;;7.93;100.00;103335.66;5023250;28;20025;-67
2022/03/27 06:15:36;;;;;;;5.85;5.05;;;;;;;7.87;100.00;103342.19;4988049;28;20117;-67
2022/03/27 06:18:01;;;;;;;5.90;4.85;;;;;;;7.86;100.00;103345.63;5009650;28;20484;-66
2022/03/27 06:20:29;;;;;;;7.13;5.80;;;;;;;7.79;100.00;103340.78;5013203;28;20030;-67
2022/03/27 06:22:55;;;;;;;7.78;5.57;;;;;;;7.62;100.00;103348.34;5014406;28;20167;-68
2022/03/27 06:25:24;;;;;;;6.65;5.50;;;;;;;7.62;100.00;103350.06;5015262;28;20032;-68
2022/03/27 06:27:49;;;;;;;8.30;5.70;;;;;;;7.49;100.00;103349.22;5014206;28;20032;-66
2022/03/27 06:30:17;;;;;;;6.10;5.28;;;;;;;7.58;100.00;103346.31;4996746;28;20030;-68
2022/03/27 06:32:43;;;;;;;8.05;5.63;;;;;;;7.50;100.00;103352.75;5013980;28;20110;-68
2022/03/27 06:35:11;;;;;;;6.78;5.03;;;;;;;7.47;100.00;103345.56;5014150;28;20034;-68
2022/03/27 06:37:37;;;;;;;6.35;5.38;;;;;;;7.49;100.00;103350.91;5013671;28;20038;-68
2022/03/27 06:40:03;;;;;;;7.57;5.60;;;;;;;7.56;100.00;103353.19;5017028;28;20033;-68
2022/03/27 06:42:29;;;;;;;7.18;5.70;;;;;;;7.47;100.00;103348.19;5009659;28;20049;-68
2022/03/27 06:44:55;;;;;;;7.20;5.80;;;;;;;7.51;100.00;103346.72;5008042;28;20029;-67
2022/03/27 06:47:23;;;;;;;7.63;6.35;;;;;;;7.60;100.00;103349.97;5010740;28;20032;-70
2022/03/27 06:49:51;;;;;;;7.50;5.85;;;;;;;7.55;100.00;103352.25;5012556;28;20029;-70
2022/03/27 06:52:17;;;;;;;7.97;5.95;;;;;;;7.56;100.00;103354.09;5012664;28;20033;-69
2022/03/27 06:54:44;;;;;;;9.43;7.00;;;;;;;7.62;100.00;103353.59;5013806;28;20026;-69
2022/03/27 06:57:10;;;;;;;11.30;8.27;;;;;;;7.64;100.00;103359.88;5013969;28;20026;-69
2022/03/27 07:05:04;;;;;;;12.50;8.53;;;;;;;7.64;100.00;103354.63;5013958;28;19920;-69
2022/03/27 07:07:30;;;;;;;9.77;7.40;;;;;;;7.59;100.00;103351.66;5013676;28;20026;-70
2022/03/27 07:09:55;;;;;;;10.15;7.53;;;;;;;7.67;100.00;103346.97;5012145;28;20480;-69
2022/03/27 07:12:21;;;;;;;10.35;7.60;;;;;;;7.60;100.00;103350.88;5013205;28;20029;-70
2022/03/27 07:14:48;;;;;;;11.93;7.35;;;;;;;7.65;100.00;103351.22;5009529;28;20461;-70
2022/03/27 07:17:15;;;;;;;9.40;7.43;;;;;;;7.66;100.00;103355.63;5009244;28;20727;-70
2022/03/27 07:19:41;;;;;;;9.93;7.65;;;;;;;7.70;100.00;103347.16;5012477;28;20030;-70
2022/03/27 07:22:06;;;;;;;10.52;7.82;;;;;;;7.67;100.00;103346.97;4994159;28;20473;-69
2022/03/27 07:24:32;;;;;;;10.90;7.80;;;;;;;7.60;100.00;103352.59;5011306;28;20018;-69
2022/03/27 07:26:57;;;;;;;11.32;7.90;;;;;;;7.64;100.00;103345.84;5012437;28;20057;-69
2022/03/27 07:29:22;;;;;;;10.38;7.47;;;;;;;7.69;100.00;103357.56;4995009;28;20041;-69
2022/03/27 07:31:49;;;;;;;11.27;7.70;;;;;;;7.68;100.00;103354.03;4994508;28;20032;-69
2022/03/27 07:34:16;;;;;;;9.48;6.43;;;;;;;7.59;100.00;103353.41;5012196;28;20109;-69
2022/03/27 07:36:42;;;;;;;12.45;7.90;;;;;;;7.62;100.00;103344.84;5008540;28;20106;-68
2022/03/27 07:39:07;;;;;;;12.80;7.38;;;;;;;7.69;100.00;103341.81;4994646;28;20109;-70
2022/03/27 07:41:32;;;;;;;11.05;8.00;;;;;;;7.59;100.00;103350.78;5009035;28;20393;-69
2022/03/27 07:43:57;;;;;;;12.70;8.13;;;;;;;7.70;100.00;103346.28;5011877;28;20034;-68
2022/03/27 07:46:23;;;;;;;11.25;7.65;;;;;;;7.66;100.00;103345.13;5011976;28;20026;-68
2022/03/27 07:48:48;;;;;;;11.70;7.75;;;;;;;7.75;100.00;103343.16;5012196;28;20479;-68
2022/03/27 07:51:13;;;;;;;10.00;6.97;;;;;;;7.83;100.00;103342.78;5012227;28;20028;-68
2022/03/27 07:53:39;;;;;;;9.48;6.45;;;;;;;7.96;100.00;103344.53;5007762;28;20161;-68
2022/03/27 07:56:05;;;;;;;12.07;6.95;;;;;;;8.01;100.00;103345.75;5012052;28;20088;-69
2022/03/27 07:58:30;;;;;;;11.20;7.32;;;;;;;8.04;99.59;103349.47;4994379;28;20126;-68
2022/03/27 08:00:56;;;;;;;11.35;7.60;;;;;;;8.07;99.41;103344.44;5012327;28;20061;-69
2022/03/27 08:03:21;;;;;;;11.45;7.70;;;;;;;8.17;99.01;103345.97;5012251;28;20026;-69
2022/03/27 08:05:46;;;;;;;8.18;5.93;;;;;;;8.20;94.56;103340.91;5011752;28;20101;-69
2022/03/27 08:08:12;;;;;;;8.02;5.68;;;;;;;8.24;91.76;103345.56;4994439;28;20022;-69
2022/03/27 08:10:37;;;;;;;9.05;6.30;;;;;;;8.21;92.50;103348.00;5011733;28;20107;-68
2022/03/27 08:13:02;;;;;;;10.80;6.00;;;;;;;8.17;93.22;103345.97;5012862;28;20631;-76
2022/03/27 08:15:28;;;;;;;9.48;5.90;;;;;;;8.28;92.18;103344.06;4992951;28;20029;-70
2022/03/27 08:17:54;;;;;;;7.47;5.40;;;;;;;8.41;91.14;103362.44;4993139;28;20454;-68
2022/03/27 08:20:21;;;;;;;7.32;5.50;;;;;;;8.52;89.23;103357.00;5008387;28;20065;-68
2022/03/27 08:22:48;;;;;;;8.00;5.53;;;;;;;8.52;89.54;103354.38;5006180;28;20081;-68
2022/03/27 08:26:55;;;;;;;8.02;5.32;;;;;;;8.51;87.32;103348.22;5010877;28;20033;-67
2022/03/27 08:27:59;;;;;;;8.63;5.40;;;;;;;8.63;87.63;103348.13;5017748;28;20528;-67
2022/03/27 08:30:24;;;;;;;7.43;5.57;;;;;;;8.74;88.25;103348.81;5010838;28;20022;-68
2022/03/27 08:32:50;;;;;;;6.35;5.00;;;;;;;8.80;89.52;103351.81;5010072;28;20041;-68
2022/03/27 08:35:15;;;;;;;8.98;5.78;;;;;;;8.84;89.31;103345.97;5012510;28;20052;-68
2022/03/27 08:37:40;;;;;;;8.38;5.30;;;;;;;8.92;88.40;103346.47;5009740;28;20122;-68
2022/03/27 08:40:06;;;;;;;12.13;6.85;;;;;;;9.05;88.17;103348.16;5018284;28;20026;-68
2022/03/27 08:42:31;;;;;;;8.13;5.70;;;;;;;9.17;87.87;103348.94;5020450;28;20032;-68
2022/03/27 08:44:57;;;;;;;9.13;6.25;;;;;;;9.34;88.21;103351.69;5026817;28;20075;-68
2022/03/27 08:47:28;;;;;;;8.98;5.85;;;;;;;9.40;85.63;103344.19;5021128;28;20029;-68
2022/03/27 08:50:11;;;;;;;7.82;5.65;;;;;;;9.53;84.95;103343.22;5011942;28;20033;-71
2022/03/27 08:52:41;;;;;;;6.60;4.88;;;;;;;9.52;83.19;103333.53;5011415;28;20033;-68
2022/03/27 08:55:17;;;;;;;6.72;5.05;;;;;;;9.70;82.80;103331.09;5011004;28;20026;-68
2022/03/27 08:57:54;;;;;;;5.93;4.78;;;;;;;9.87;81.96;103337.38;5010184;28;20501;-69
2022/03/27 09:00:24;;;;;;;8.02;4.32;;;;;;;9.85;77.79;103326.78;5011312;28;20022;-69
2022/03/27 09:02:50;;;;;;;6.18;4.50;;;;;;;9.95;76.80;103333.47;5018703;28;20032;-68
2022/03/27 09:05:17;;;;;;;6.80;4.13;;;;;;;10.15;77.37;103337.28;5014116;28;20018;-68
2022/03/27 09:07:43;;;;;;;6.55;4.30;;;;;;;10.51;77.30;103334.09;5011113;28;20030;-68
2022/03/27 09:10:10;;;;;;;5.20;3.80;;;;;;;10.58;75.83;103334.53;5020970;28;20025;-70
2022/03/27 09:12:36;;;;;;;11.20;4.15;;;;;;;10.72;76.04;103330.03;5001803;28;20041;-69
2022/03/27 09:15:07;;;;;;;5.82;4.10;;;;;;;10.70;77.35;103334.31;5019864;28;20036;-69
2022/03/27 09:17:32;;;;;;;7.70;4.80;;;;;;;10.95;76.49;103326.03;5014354;28;20057;-69
2022/03/27 09:19:57;;;;;;;6.70;4.72;;;;;;;11.16;77.07;103324.50;5028926;28;20044;-69
2022/03/27 09:22:29;;;;;;;6.65;4.30;;;;;;;11.30;74.32;103326.16;5008902;28;20041;-69
2022/03/27 09:25:04;;;;;;;6.13;4.07;;;;;;;11.59;71.16;103316.25;5010162;28;20037;-69
2022/03/27 09:27:37;;;;;;;6.80;4.43;;;;;;;11.60;69.66;103318.06;5009347;28;20045;-68
2022/03/27 09:30:11;;;;;;;4.82;3.83;;;;;;;12.07;73.24;103332.81;4993873;28;20033;-71
2022/03/27 09:32:41;;;;;;;5.72;4.15;;;;;;;12.14;71.33;103324.38;5018503;28;20033;-71
2022/03/27 09:35:15;;;;;;;5.28;4.05;;;;;;;12.27;71.06;103319.69;5011818;28;20030;-71
2022/03/27 09:37:45;;;;;;;9.32;3.90;;;;;;;12.20;71.63;103318.50;5011437;28;20494;-70
2022/03/27 09:40:12;;;;;;;8.18;4.55;;;;;;;12.33;71.77;103314.75;4993866;28;20029;-70
2022/03/27 09:42:40;;;;;;;7.15;4.95;;;;;;;12.51;70.28;103321.72;5011818;28;20163;-69
2022/03/27 09:45:23;;;;;;;7.05;4.57;;;;;;;12.69;67.41;103309.41;5009936;28;20310;-69
2022/03/27 09:47:52;;;;;;;7.38;4.50;;;;;;;12.82;67.62;103327.66;5018316;28;20026;-69
2022/03/27 09:50:40;;;;;;;7.20;3.83;;;;;;;13.07;66.88;103322.63;5013353;28;20033;-69
2022/03/27 09:53:26;;;;;;;7.72;3.78;;;;;;;13.44;65.30;103314.66;5011907;28;20045;-69
2022/03/27 09:56:13;;;;;;;4.65;3.72;;;;;;;13.72;64.24;103321.13;5011870;28;20033;-69
2022/03/27 09:58:44;;;;;;;9.02;4.10;;;;;;;13.88;62.29;103305.94;5003737;28;20033;-68
2022/03/27 10:01:15;;;;;;;5.57;3.78;;;;;;;13.98;60.54;103311.69;5014820;28;20500;-68
2022/03/27 10:04:00;;;;;;;6.35;3.65;;;;;;;14.14;62.96;103310.56;5015028;28;20034;-69
2022/03/27 10:06:27;;;;;;;84.30;6.32;;;;;;;14.45;61.21;103311.81;5015262;28;20026;-68
2022/03/27 10:08:52;;;;;;;31.40;3.83;;;;;;;14.52;59.43;103314.72;5013870;28;20053;-68
2022/03/27 10:11:21;;;;;;;16.17;4.40;;;;;;;14.49;58.39;103305.78;5014771;28;20052;-69
2022/03/27 10:13:47;;;;;;;5.15;3.13;;;;;;;14.30;58.19;103311.22;4997093;28;20057;-69
2022/03/27 10:16:13;;;;;;;7.10;3.42;;;;;;;14.12;58.79;103312.25;5015001;28;20059;-69
2022/03/27 10:18:39;;;;;;;22.25;4.38;;;;;;;14.42;58.30;103301.09;5013434;28;20030;-69
2022/03/27 10:21:04;;;;;;;11.68;3.80;;;;;;;14.60;55.31;103300.03;5006299;28;20025;-69
2022/03/27 10:23:31;;;;;;;22.48;3.92;;;;;;;14.67;53.08;103283.56;5011891;28;20021;-68
2022/03/27 10:26:01;;;;;;;59.90;5.85;;;;;;;14.95;51.43;103281.97;5013391;28;20041;-68
2022/03/27 10:28:28;;;;;;;10.57;3.40;;;;;;;14.98;51.50;103279.44;5014459;28;20034;-68
2022/03/27 10:30:54;;;;;;;9.60;2.92;;;;;;;14.95;51.91;103281.97;4996811;28;20034;-68
2022/03/27 10:33:24;;;;;;;7.13;3.60;;;;;;;15.02;50.78;103281.34;4995675;28;20080;-69
2022/03/27 10:36:03;;;;;;;7.25;3.72;;;;;;;15.27;52.00;103276.94;5012453;28;20032;-69
2022/03/27 10:38:54;;;;;;;9.02;4.13;;;;;;;15.54;52.22;103287.63;4994648;28;20160;-69
2022/03/27 10:41:29;;;;;;;4.72;3.25;;;;;;;15.94;51.64;103275.78;5014417;28;20482;-69
2022/03/27 10:44:10;;;;;;;7.80;3.67;;;;;;;15.49;46.15;103263.59;5011085;28;20357;-69
2022/03/27 10:46:36;;;;;;;4.60;3.30;;;;;;;15.85;48.59;103267.50;5010237;28;20037;-69
2022/03/27 10:49:18;;;;;;;5.93;3.60;;;;;;;16.15;48.15;103264.94;5012602;28;20366;-69
2022/03/27 10:51:46;;;;;;;5.22;3.90;;;;;;;16.21;46.95;103263.34;4993989;28;20523;-69
2022/03/27 10:54:14;;;;;;;6.15;3.47;;;;;;;16.68;45.50;103261.25;5010712;28;20018;-69
2022/03/27 10:56:43;;;;;;;8.98;4.25;;;;;;;16.56;47.31;103260.88;5013142;28;20033;-70
2022/03/27 10:59:14;;;;;;;6.47;4.60;;;;;;;16.77;46.14;103258.88;5011759;28;20022;-69
2022/03/27 11:01:42;;;;;;;7.63;4.50;;;;;;;16.86;47.46;103256.50;5007005;28;20374;-69
2022/03/27 11:04:11;;;;;;;8.40;4.50;;;;;;;16.91;46.57;103253.09;5010363;28;20029;-69
2022/03/27 11:06:48;;;;;;;7.00;4.28;;;;;;;16.85;46.78;103248.47;5014476;28;20107;-69
2022/03/27 11:09:34;;;;;;;6.35;3.90;;;;;;;17.19;46.57;103247.69;5014623;28;20355;-69
2022/03/27 11:12:02;;;;;;;6.50;4.05;;;;;;;17.26;44.67;103242.56;5017299;28;20030;-70
2022/03/27 11:14:52;;;;;;;8.95;4.30;;;;;;;17.69;44.35;103244.56;5016455;28;20025;-70
2022/03/27 11:17:33;;;;;;;6.63;4.15;;;;;;;18.34;43.02;103237.28;5004530;28;20115;-69
2022/03/27 11:20:00;;;;;;;7.47;3.90;;;;;;;18.61;41.70;103241.41;5011094;28;20389;-69
2022/03/27 11:22:44;;;;;;;5.32;3.40;;;;;;;17.98;40.14;103216.91;5010127;28;20026;-70
2022/03/27 11:25:44;;;;;;;6.75;2.95;;;;;;;18.38;39.18;103223.16;5008758;28;20045;-70
2022/03/27 11:28:12;;;;;;;9.25;3.38;;;;;;;18.96;36.09;103220.81;5007343;28;20561;-71
2022/03/27 11:30:59;;;;;;;6.68;2.75;;;;;;;19.59;34.10;103225.50;5011262;28;20061;-70